Time;durP1;ratioP1;P1;durP2;ratioP2;P2;SDS_P1;SDS_P2;PMS_P1;PMS_P2;Temp;Humidity;BMP_temperature;BMP_pressure;BME280_temperature;BME280_humidity;BME280_pressure;Samples;Min_cycle;Max_cycle;Signal;HPM_P1;HPM_P2
2022/05/20 00:01:48;;;;;;;3.67;3.37;;;;;;;13.86;74.73;100496.53;5091586;28;20653;-57
2022/05/20 00:04:16;;;;;;;3.93;3.53;;;;;;;13.73;75.25;100490.75;5090937;28;20576;-57
2022/05/20 00:06:42;;;;;;;4.20;3.80;;;;;;;13.60;75.63;100498.03;5091210;28;20230;-56
2022/05/20 00:09:11;;;;;;;3.67;3.37;;;;;;;13.52;75.58;100493.94;5091202;28;20241;-65
2022/05/20 00:11:38;;;;;;;4.73;3.67;;;;;;;13.41;75.83;100483.75;5091264;28;20213;-57
2022/05/20 00:14:06;;;;;;;4.93;4.00;;;;;;;13.42;76.49;100491.56;5091018;28;20201;-64
2022/05/20 00:16:33;;;;;;;6.77;4.20;;;;;;;13.50;75.60;100493.97;5089834;28;20191;-56
2022/05/20 00:19:00;;;;;;;4.80;3.50;;;;;;;13.43;76.63;100489.81;5090964;28;20199;-58
2022/05/20 00:21:27;;;;;;;4.50;3.50;;;;;;;13.40;76.32;100492.47;5091120;28;20202;-57
2022/05/20 00:23:54;;;;;;;4.10;3.70;;;;;;;13.33;77.24;100488.28;5090709;28;20282;-57
2022/05/20 00:26:23;;;;;;;5.10;3.53;;;;;;;13.33;77.51;100488.28;5090833;28;20219;-57
2022/05/20 00:28:50;;;;;;;4.17;3.87;;;;;;;13.34;78.17;100484.78;5090705;28;20202;-57
2022/05/20 00:31:18;;;;;;;10.10;4.00;;;;;;;13.39;79.26;100485.53;5090903;28;20205;-57
2022/05/20 00:33:45;;;;;;;4.97;3.80;;;;;;;13.37;79.68;100484.72;5090925;28;20679;-56
2022/05/20 00:36:12;;;;;;;4.10;3.80;;;;;;;13.27;81.70;100483.25;5090873;28;20226;-56
2022/05/20 00:38:39;;;;;;;4.23;3.83;;;;;;;13.06;83.22;100480.22;5090839;28;20202;-57
2022/05/20 00:41:08;;;;;;;5.33;3.73;;;;;;;12.91;85.13;100488.38;5090953;28;20195;-57
2022/05/20 00:43:39;;;;;;;6.23;4.03;;;;;;;12.92;85.01;100482.28;5090647;28;20203;-58
2022/05/20 00:46:08;;;;;;;4.23;3.83;;;;;;;12.96;85.09;100483.94;5090114;28;20233;-66
2022/05/20 00:48:37;;;;;;;5.20;3.97;;;;;;;12.93;84.00;100476.19;5089975;28;20266;-66
2022/05/20 00:51:09;;;;;;;4.67;4.03;;;;;;;12.96;82.69;100476.13;5090372;28;20199;-66
2022/05/20 00:53:40;;;;;;;3.60;3.40;;;;;;;12.96;82.59;100478.72;5090363;28;20693;-66
2022/05/20 00:56:09;;;;;;;5.07;3.30;;;;;;;13.03;82.14;100474.22;5090465;28;20221;-65
2022/05/20 00:58:39;;;;;;;6.17;3.60;;;;;;;13.00;82.38;100474.28;5090274;28;20205;-65
2022/05/20 01:01:06;;;;;;;3.73;3.47;;;;;;;13.02;81.28;100475.97;5090558;28;20256;-66
2022/05/20 01:03:33;;;;;;;3.53;3.23;;;;;;;13.05;80.81;100486.31;5090334;28;20308;-58
2022/05/20 01:06:00;;;;;;;3.90;3.30;;;;;;;12.95;79.92;100471.81;5090320;28;20590;-64
2022/05/20 01:08:31;;;;;;;3.97;3.63;;;;;;;12.99;80.25;100481.25;5090165;28;20195;-65
2022/05/20 01:10:59;;;;;;;4.93;2.67;;;;;;;12.82;82.19;100472.97;5090254;28;20663;-64
2022/05/20 01:13:27;;;;;;;4.40;3.37;;;;;;;12.83;82.55;100490.31;5090317;28;20195;-65
2022/05/20 01:15:57;;;;;;;4.77;3.20;;;;;;;12.71;82.87;100475.81;5090276;28;20679;-63
2022/05/20 01:18:24;;;;;;;4.53;3.50;;;;;;;12.91;82.46;100488.38;5090578;28;20231;-63
2022/05/20 01:20:55;;;;;;;6.27;3.57;;;;;;;12.96;81.58;100491.75;5090288;28;20285;-63
2022/05/20 01:23:25;;;;;;;5.57;3.27;;;;;;;12.90;82.06;100489.28;5089926;28;20278;-63
2022/05/20 01:25:54;;;;;;;4.33;3.93;;;;;;;12.87;81.15;100489.34;5089897;28;20199;-63
2022/05/20 01:28:23;;;;;;;4.10;3.33;;;;;;;12.77;80.73;100487.84;5090448;28;20221;-62
2022/05/20 01:30:56;;;;;;;3.50;3.17;;;;;;;12.78;80.21;100486.94;5090390;28;20210;-63
2022/05/20 01:33:26;;;;;;;3.97;3.57;;;;;;;12.78;80.18;100489.53;5089972;28;20246;-56
2022/05/20 01:35:53;;;;;;;3.27;2.97;;;;;;;12.85;79.03;100498.09;5089891;28;20201;-57
2022/05/20 01:38:20;;;;;;;3.03;2.80;;;;;;;12.76;77.92;100490.47;5089972;28;20205;-57
2022/05/20 01:40:52;;;;;;;3.87;3.00;;;;;;;12.72;78.55;100492.31;5090114;28;20690;-58
2022/05/20 01:43:36;;;;;;;2.83;2.63;;;;;;;12.65;78.29;100495.91;5089774;28;20203;-57
2022/05/20 01:46:15;;;;;;;3.13;2.60;;;;;;;12.54;78.57;100490.94;5089709;28;20719;-59
2022/05/20 01:48:50;;;;;;;2.90;2.57;;;;;;;12.54;77.90;100503.09;5089740;28;20195;-65
2022/05/20 01:51:20;;;;;;;3.53;2.63;;;;;;;12.51;77.49;100498.84;5089898;28;20201;-65
2022/05/20 01:53:51;;;;;;;7.70;2.90;;;;;;;12.50;76.36;100502.31;5089814;28;20686;-66
2022/05/20 01:56:26;;;;;;;4.23;3.10;;;;;;;12.44;75.80;100478.16;5089748;28;20199;-58
2022/05/20 01:58:59;;;;;;;2.57;2.37;;;;;;;12.50;76.76;100499.72;5090881;28;20194;-58
2022/05/20 02:01:32;;;;;;;3.03;2.67;;;;;;;12.49;77.64;100499.75;5093934;28;20203;-57
2022/05/20 02:04:05;;;;;;;3.57;2.60;;;;;;;12.42;76.97;100495.53;5093806;28;20605;-58
2022/05/20 02:06:36;;;;;;;2.80;2.60;;;;;;;12.49;76.46;100503.22;5093702;28;20290;-57
2022/05/20 02:09:07;;;;;;;3.03;2.70;;;;;;;12.54;75.73;100500.50;5093719;28;20742;-62
2022/05/20 02:11:40;;;;;;;3.07;2.47;;;;;;;12.47;75.85;100498.91;5093647;28;20191;-63
2022/05/20 02:14:11;;;;;;;2.97;2.30;;;;;;;12.42;76.38;100490.31;5093972;28;20202;-63
2022/05/20 02:16:41;;;;;;;3.50;2.57;;;;;;;12.38;76.13;100493.91;5093822;28;20583;-63
2022/05/20 02:19:16;;;;;;;2.50;2.30;;;;;;;12.34;76.30;100496.56;5093355;28;20199;-64
2022/05/20 02:21:47;;;;;;;5.97;2.63;;;;;;;12.05;76.00;100436.44;5093409;28;20288;-56
2022/05/20 02:24:19;;;;;;;4.83;2.37;;;;;;;12.31;75.58;100488.81;5093166;28;20278;-57
2022/05/20 02:26:52;;;;;;;4.30;2.73;;;;;;;12.37;74.71;100490.44;5093495;28;20223;-56
2022/05/20 02:29:23;;;;;;;2.60;2.40;;;;;;;12.19;74.68;100467.41;5093180;28;20192;-58
2022/05/20 02:31:55;;;;;;;4.30;2.57;;;;;;;12.36;74.41;100494.78;5093271;28;20205;-62
2022/05/20 02:34:21;;;;;;;3.23;2.33;;;;;;;12.41;74.49;100497.31;5093188;28;20195;-62
2022/05/20 02:36:48;;;;;;;3.97;2.70;;;;;;;12.41;74.89;100499.06;5093227;28;20253;-62
2022/05/20 02:39:21;;;;;;;3.77;2.60;;;;;;;12.39;75.11;100498.22;5093107;28;20199;-64
2022/05/20 02:41:50;;;;;;;2.10;1.90;;;;;;;12.32;74.71;100503.53;5079748;28;20226;-64
2022/05/20 02:44:17;;;;;;;4.90;2.50;;;;;;;12.34;74.46;100493.97;5091776;28;20257;-66
2022/05/20 02:46:47;;;;;;;3.63;2.23;;;;;;;12.30;74.29;100496.69;5091822;28;20211;-57
2022/05/20 02:49:14;;;;;;;3.17;2.30;;;;;;;12.28;74.09;100480.22;5091444;28;20578;-56
2022/05/20 02:51:41;;;;;;;4.13;2.40;;;;;;;12.39;74.39;100493.03;5092375;28;20229;-56
2022/05/20 02:54:08;;;;;;;3.20;2.10;;;;;;;12.30;73.45;100492.28;5091965;28;20250;-57
2022/05/20 02:56:37;;;;;;;2.50;2.30;;;;;;;12.31;73.52;100493.16;5091915;28;20614;-57
2022/05/20 03:04:34;;;;;;;2.00;1.90;;;;;;;12.43;73.66;100487.69;5092078;28;20226;-65
2022/05/20 03:07:01;;;;;;;4.07;2.40;;;;;;;12.45;73.42;100483.31;5091541;28;20233;-64
2022/05/20 03:09:28;;;;;;;5.13;3.07;;;;;;;12.46;73.63;100487.66;5091177;28;20219;-65
2022/05/20 03:11:55;;;;;;;2.83;2.57;;;;;;;12.47;73.66;100496.31;5090058;28;20222;-64
2022/05/20 03:14:25;;;;;;;5.33;2.00;;;;;;;12.50;73.88;100493.66;5089485;28;20615;-64
2022/05/20 03:16:52;;;;;;;2.43;2.23;;;;;;;12.48;74.87;100490.22;5088565;28;20219;-64
2022/05/20 03:19:20;;;;;;;2.30;2.10;;;;;;;12.42;74.58;100491.19;5088734;28;20268;-65
2022/05/20 03:21:47;;;;;;;5.23;2.70;;;;;;;12.41;74.43;100489.50;5086811;28;20815;-65
2022/05/20 03:24:14;;;;;;;3.30;2.57;;;;;;;12.42;73.45;100490.31;5087089;28;20562;-65
2022/05/20 03:26:41;;;;;;;3.10;2.80;;;;;;;12.47;73.13;100496.31;5088244;28;20254;-64
2022/05/20 03:29:08;;;;;;;3.23;2.50;;;;;;;12.44;73.79;100499.84;5087332;28;20250;-65
2022/05/20 03:31:38;;;;;;;3.87;2.57;;;;;;;12.51;73.43;100497.97;5088718;28;20226;-64
2022/05/20 03:34:06;;;;;;;6.10;2.27;;;;;;;12.53;74.67;100496.16;5087933;28;20284;-64
2022/05/20 03:36:35;;;;;;;2.60;2.40;;;;;;;12.54;74.08;100479.66;5088896;28;20223;-65
2022/05/20 03:39:02;;;;;;;3.87;2.70;;;;;;;12.74;73.28;100508.75;5087731;28;20214;-65
2022/05/20 03:41:29;;;;;;;3.33;3.00;;;;;;;12.79;72.18;100491.25;5087496;28;20607;-56
2022/05/20 03:43:56;;;;;;;4.70;2.90;;;;;;;12.88;72.21;100505.81;5088691;28;20195;-55
2022/05/20 03:46:23;;;;;;;3.30;2.90;;;;;;;12.96;72.63;100514.34;5088734;28;20200;-55
2022/05/20 03:48:52;;;;;;;2.83;2.60;;;;;;;13.73;69.87;100512.50;5089468;28;20219;-55
2022/05/20 03:51:19;;;;;;;5.93;2.80;;;;;;;15.53;62.17;100508.03;5089236;28;20191;-56
2022/05/20 03:53:45;;;;;;;5.13;2.60;;;;;;;17.48;55.10;100513.06;5089088;28;20214;-56
2022/05/20 03:56:13;;;;;;;7.70;2.77;;;;;;;19.56;48.46;100512.31;5089229;28;20202;-56
2022/05/20 03:58:39;;;;;;;4.47;2.60;;;;;;;20.73;44.61;100509.75;5089221;28;20220;-56
2022/05/20 04:03:57;;;;;;;2.95;2.70;;;;;;;23.46;37.78;100521.38;5088806;28;20724;-56
2022/05/20 04:06:24;;;;;;;4.43;2.90;;;;;;;24.47;36.17;100515.38;5088668;28;20222;-57
2022/05/20 04:08:51;;;;;;;3.80;3.13;;;;;;;25.60;34.03;100519.50;5088505;28;20796;-57
2022/05/20 04:11:18;;;;;;;3.08;2.88;;;;;;;26.39;32.22;100525.88;5089357;28;20603;-57
2022/05/20 04:13:46;;;;;;;3.72;2.90;;;;;;;27.10;31.63;100521.91;5088975;28;20254;-57
2022/05/20 04:16:14;;;;;;;5.25;2.80;;;;;;;28.35;29.55;100522.91;5087978;28;20594;-56
2022/05/20 04:18:43;;;;;;;3.85;2.65;;;;;;;29.68;27.63;100529.72;5088834;28;20653;-57
2022/05/20 04:21:12;;;;;;;8.50;3.22;;;;;;;30.15;27.36;100530.63;5089555;28;20725;-56
2022/05/20 04:23:39;;;;;;;7.70;3.03;;;;;;;30.64;25.98;100527.69;5089792;28;20205;-57
2022/05/20 04:26:07;;;;;;;8.13;2.72;;;;;;;30.67;25.61;100531.91;5090381;28;20187;-59
2022/05/20 04:28:34;;;;;;;4.47;2.90;;;;;;;30.74;25.48;100534.81;5089715;28;20222;-58
2022/05/20 04:31:03;;;;;;;4.93;3.10;;;;;;;30.32;26.00;100540.63;5090526;28;20204;-60
2022/05/20 04:33:31;;;;;;;6.80;3.08;;;;;;;30.35;25.69;100532.28;5089958;28;20589;-62
2022/05/20 04:35:58;;;;;;;40.92;3.90;;;;;;;30.86;25.26;100542.50;5089704;28;20202;-62
2022/05/20 04:38:26;;;;;;;17.98;4.13;;;;;;;31.07;25.17;100544.09;5089876;28;20196;-63
2022/05/20 04:49:05;;;;;;;5.55;3.22;;;;;;;32.66;23.15;100546.59;5086771;28;20284;-63
2022/05/20 04:51:33;;;;;;;4.72;3.15;;;;;;;32.37;23.14;100544.28;5085865;28;20241;-63
2022/05/20 04:56:46;;;;;;;4.85;3.25;;;;;;;32.98;22.79;100545.91;5090156;28;20233;-63
2022/05/20 04:59:13;;;;;;;5.13;3.42;;;;;;;33.81;22.30;100549.44;5088630;28;20211;-63
2022/05/20 05:01:40;;;;;;;3.20;2.90;;;;;;;34.25;22.01;100557.13;5089397;28;20223;-63
2022/05/20 05:04:08;;;;;;;8.20;3.10;;;;;;;34.48;22.12;100557.28;5089012;28;20219;-63
2022/05/20 05:06:35;;;;;;;3.10;2.78;;;;;;;34.90;21.45;100554.25;5089369;28;20695;-63
2022/05/20 05:09:03;;;;;;;3.80;3.08;;;;;;;34.77;21.59;100562.91;5088765;28;20230;-62
2022/05/20 05:11:31;;;;;;;3.15;2.85;;;;;;;34.54;21.83;100562.78;5087234;28;20197;-62
2022/05/20 05:13:58;;;;;;;5.72;2.92;;;;;;;34.84;21.25;100566.59;5089255;28;20195;-62
2022/05/20 05:16:25;;;;;;;3.47;2.58;;;;;;;35.08;21.37;100554.84;5088263;28;20205;-64
2022/05/20 05:18:52;;;;;;;8.00;3.15;;;;;;;35.02;21.03;100557.41;5089531;28;20209;-63
2022/05/20 05:21:19;;;;;;;3.30;2.58;;;;;;;35.00;21.12;100562.97;5089845;28;20290;-63
2022/05/20 05:23:46;;;;;;;3.40;2.92;;;;;;;33.85;22.17;100556.19;5090169;28;20191;-64
2022/05/20 05:26:14;;;;;;;6.55;2.63;;;;;;;33.42;22.42;100561.81;5090213;28;20195;-63
2022/05/20 05:28:41;;;;;;;5.70;2.90;;;;;;;33.13;23.17;100563.09;5089563;28;20215;-62
2022/05/20 05:31:08;;;;;;;7.85;2.92;;;;;;;32.97;22.94;100557.66;5088665;28;20197;-63
2022/05/20 05:33:35;;;;;;;3.45;2.70;;;;;;;33.42;22.57;100559.97;5088085;28;20205;-63
2022/05/20 05:36:02;;;;;;;6.88;2.88;;;;;;;33.72;22.55;100553.13;5088764;28;20663;-63
2022/05/20 05:38:29;;;;;;;5.22;2.95;;;;;;;33.85;22.36;100552.66;5088566;28;20183;-62
2022/05/20 05:40:56;;;;;;;8.48;2.85;;;;;;;33.36;23.33;100551.75;5088620;28;20197;-63
2022/05/20 05:43:24;;;;;;;5.25;2.80;;;;;;;33.64;22.75;100547.72;5089005;28;20203;-62
2022/05/20 05:45:51;;;;;;;6.55;3.35;;;;;;;33.99;23.14;100541.16;5090154;28;20342;-63
2022/05/20 05:48:18;;;;;;;5.72;2.80;;;;;;;32.95;23.78;100546.25;5089343;28;20731;-62
2022/05/20 05:50:45;;;;;;;5.85;3.22;;;;;;;31.67;24.98;100547.94;5089800;28;20296;-62
2022/05/20 05:53:14;;;;;;;4.15;3.72;;;;;;;31.44;25.31;100531.44;5089231;28;20193;-63
2022/05/20 05:55:42;;;;;;;4.97;3.67;;;;;;;31.46;25.31;100548.22;5089346;28;20195;-63
2022/05/20 05:58:09;;;;;;;10.43;3.17;;;;;;;31.37;25.70;100549.16;5089748;28;20197;-63
2022/05/20 06:00:39;;;;;;;5.35;3.13;;;;;;;31.57;25.56;100539.94;5089397;28;20663;-63
2022/05/20 06:03:06;;;;;;;6.68;3.25;;;;;;;31.39;25.62;100522.97;5089864;28;20203;-64
2022/05/20 06:05:33;;;;;;;6.60;3.38;;;;;;;30.78;26.20;100537.06;5089201;28;20203;-63
2022/05/20 06:08:00;;;;;;;7.13;3.25;;;;;;;30.65;26.36;100539.25;5089565;28;20223;-63
2022/05/20 06:10:28;;;;;;;7.40;3.75;;;;;;;30.97;25.80;100512.81;5089642;28;20579;-63
2022/05/20 06:12:55;;;;;;;5.35;4.38;;;;;;;30.81;26.33;100544.81;5089712;28;20207;-63
2022/05/20 06:15:23;;;;;;;7.90;4.28;;;;;;;31.08;26.20;100535.03;5089690;28;20202;-63
2022/05/20 06:17:52;;;;;;;8.52;3.80;;;;;;;31.18;26.22;100536.69;5089680;28;20252;-62
2022/05/20 06:20:20;;;;;;;6.82;3.35;;;;;;;31.29;26.16;100520.38;5089425;28;20202;-62
2022/05/20 06:22:47;;;;;;;6.55;4.40;;;;;;;30.78;26.84;100539.75;5089724;28;20198;-63
2022/05/20 06:25:15;;;;;;;7.15;3.30;;;;;;;30.29;27.63;100533.69;5089364;28;20192;-59
2022/05/20 06:27:42;;;;;;;4.57;2.90;;;;;;;30.76;27.25;100533.69;5074927;28;20228;-60
2022/05/20 06:30:13;;;;;;;11.50;3.92;;;;;;;31.49;26.85;100539.03;5068849;28;20730;-60
2022/05/20 06:32:40;;;;;;;5.38;4.55;;;;;;;31.57;26.72;100536.41;5070179;28;20191;-63
2022/05/20 06:40:44;;;;;;;6.15;2.80;;;;;;;31.92;25.44;100527.50;5089472;28;20259;-62
2022/05/20 06:43:13;;;;;;;15.55;4.93;;;;;;;31.69;25.85;100529.84;5089539;28;20564;-62
2022/05/20 06:45:40;;;;;;;5.22;3.42;;;;;;;31.48;25.81;100527.44;5089870;28;20230;-63
2022/05/20 06:48:07;;;;;;;10.57;4.70;;;;;;;31.51;26.14;100527.13;5092702;28;20602;-62
2022/05/20 06:50:38;;;;;;;12.35;5.65;;;;;;;31.49;26.32;100530.97;5093288;28;20703;-63
2022/05/20 06:53:05;;;;;;;9.18;3.33;;;;;;;31.46;25.86;100501.75;5092854;28;20282;-62
2022/05/20 06:55:32;;;;;;;16.20;3.85;;;;;;;31.65;25.81;100523.94;5092406;28;20209;-62
2022/05/20 06:57:59;;;;;;;8.18;3.47;;;;;;;31.17;26.36;100518.91;5092676;28;20278;-62
2022/05/20 07:00:26;;;;;;;9.30;3.30;;;;;;;30.94;26.68;100526.50;5092333;28;20198;-63
2022/05/20 07:02:53;;;;;;;3.55;3.20;;;;;;;31.34;26.47;100525.28;5092596;28;20287;-63
2022/05/20 07:05:20;;;;;;;7.88;3.50;;;;;;;31.16;26.52;100524.44;5092331;28;20206;-62
2022/05/20 07:07:49;;;;;;;6.55;3.25;;;;;;;31.17;26.64;100526.97;5092672;28;20675;-62
2022/05/20 07:10:17;;;;;;;9.13;3.10;;;;;;;31.20;26.31;100523.13;5092382;28;20199;-62
2022/05/20 07:12:44;;;;;;;5.65;3.42;;;;;;;31.45;26.06;100517.03;5092525;28;20197;-60
2022/05/20 07:15:12;;;;;;;7.57;3.38;;;;;;;31.59;25.78;100518.31;5089797;28;20283;-59
2022/05/20 07:17:39;;;;;;;6.55;4.00;;;;;;;31.17;25.88;100510.03;5090507;28;20207;-60
2022/05/20 07:20:10;;;;;;;4.82;3.70;;;;;;;30.60;26.46;100506.66;5092204;28;20203;-60
2022/05/20 07:22:37;;;;;;;6.07;4.43;;;;;;;31.20;26.51;100507.88;5091283;28;20660;-62
2022/05/20 07:25:07;;;;;;;3.17;2.95;;;;;;;31.43;25.44;100518.16;5091999;28;20302;-62
2022/05/20 07:27:34;;;;;;;2.97;2.72;;;;;;;31.19;25.66;100516.09;5092259;28;20195;-62
2022/05/20 07:30:00;;;;;;;4.40;2.70;;;;;;;31.56;25.39;100502.50;5091480;28;20215;-63
2022/05/20 07:32:27;;;;;;;4.40;2.58;;;;;;;32.01;25.47;100503.22;5090984;28;20195;-65
2022/05/20 07:34:54;;;;;;;3.35;3.05;;;;;;;32.85;24.22;100512.41;5092014;28;20195;-62
2022/05/20 07:37:21;;;;;;;3.30;2.50;;;;;;;32.87;23.04;100496.94;5091919;28;20205;-60
2022/05/20 07:39:49;;;;;;;2.72;2.55;;;;;;;33.35;22.61;100513.22;5092295;28;20303;-60
2022/05/20 07:42:17;;;;;;;4.40;2.50;;;;;;;33.61;21.84;100509.53;5091673;28;20199;-60
2022/05/20 07:44:44;;;;;;;4.60;4.13;;;;;;;34.22;21.07;100511.66;5091834;28;20230;-61
2022/05/20 07:47:11;;;;;;;4.25;2.90;;;;;;;35.01;20.48;100515.25;5092091;28;20264;-60
2022/05/20 07:49:38;;;;;;;4.95;2.80;;;;;;;35.64;19.60;100501.47;5090718;28;20219;-61
2022/05/20 07:52:08;;;;;;;3.88;3.00;;;;;;;35.79;19.99;100513.19;5091664;28;20675;-60
2022/05/20 07:54:40;;;;;;;3.30;2.35;;;;;;;35.52;19.71;100506.47;5091613;28;20199;-60
2022/05/20 07:57:13;;;;;;;5.80;4.13;;;;;;;35.59;19.68;100503.88;5091112;28;20282;-60
2022/05/20 07:59:46;;;;;;;4.90;3.55;;;;;;;35.63;19.72;100505.22;5091384;28;20191;-60
2022/05/20 08:02:15;;;;;;;6.10;5.60;;;;;;;36.04;19.03;100502.97;5091580;28;20696;-61
2022/05/20 08:05:00;;;;;;;12.40;5.88;;;;;;;36.37;19.03;100508.88;5091074;28;20590;-60
2022/05/20 08:07:31;;;;;;;7.88;5.50;;;;;;;36.73;18.39;100498.16;5091210;28;20195;-61
2022/05/20 08:09:59;;;;;;;11.48;5.93;;;;;;;36.60;18.47;100490.66;5090926;28;20219;-60
2022/05/20 08:12:25;;;;;;;5.95;5.32;;;;;;;36.59;17.91;100502.50;5091377;28;20202;-60
2022/05/20 08:14:54;;;;;;;5.43;4.88;;;;;;;36.04;18.05;100486.75;5091109;28;20191;-61
2022/05/20 08:17:24;;;;;;;6.35;4.55;;;;;;;36.22;17.68;100505.34;5091051;28;20217;-60
2022/05/20 08:19:52;;;;;;;5.78;2.75;;;;;;;36.08;17.69;100498.88;5091396;28;20191;-60
2022/05/20 08:22:22;;;;;;;4.80;2.63;;;;;;;35.75;18.00;100486.72;5090010;28;20199;-61
2022/05/20 08:24:52;;;;;;;3.10;2.08;;;;;;;35.24;18.76;100481.84;5091044;28;20252;-60
2022/05/20 08:27:19;;;;;;;5.85;2.85;;;;;;;34.52;17.86;100485.81;5090904;28;20245;-60
2022/05/20 08:29:46;;;;;;;5.57;4.30;;;;;;;34.32;18.85;100477.28;5090783;28;20219;-61
2022/05/20 08:32:15;;;;;;;8.13;3.30;;;;;;;34.09;19.43;100470.91;5090215;28;20234;-60
2022/05/20 08:34:43;;;;;;;4.13;3.33;;;;;;;34.15;19.16;100463.00;5090795;28;20206;-60
2022/05/20 08:37:10;;;;;;;6.90;3.85;;;;;;;33.87;18.64;100456.31;5090541;28;20199;-61
2022/05/20 08:39:37;;;;;;;3.40;3.10;;;;;;;33.47;18.40;100452.66;5090597;28;20282;-61
2022/05/20 08:42:06;;;;;;;3.70;3.13;;;;;;;33.31;19.49;100455.34;5090539;28;20199;-60
2022/05/20 08:44:35;;;;;;;2.67;2.47;;;;;;;32.95;19.09;100441.34;5090457;28;20262;-59
2022/05/20 08:47:16;;;;;;;5.50;3.65;;;;;;;33.06;19.03;100445.56;5090582;28;20252;-60
2022/05/20 08:49:43;;;;;;;5.03;3.42;;;;;;;32.64;19.33;100457.19;5090280;28;20227;-59
2022/05/20 08:52:10;;;;;;;7.68;3.88;;;;;;;32.55;19.45;100441.19;5090563;28;20202;-60
2022/05/20 08:54:37;;;;;;;13.95;5.45;;;;;;;32.63;19.97;100438.53;5090442;28;20199;-61
2022/05/20 08:57:24;;;;;;;7.50;6.72;;;;;;;32.69;19.29;100443.25;5090453;28;20611;-61
2022/05/20 08:59:51;;;;;;;10.52;9.45;;;;;;;32.67;19.48;100431.81;5089485;28;20195;-58
2022/05/20 09:02:20;;;;;;;2.20;2.10;;;;;;;32.34;19.66;100439.78;5089795;28;20195;-59
2022/05/20 09:04:47;;;;;;;4.68;4.25;;;;;;;32.34;19.40;100428.19;5089563;28;20278;-60
2022/05/20 09:07:15;;;;;;;23.25;15.27;;;;;;;32.40;19.85;100425.69;5087420;28;20207;-58
2022/05/20 09:09:47;;;;;;;15.27;12.80;;;;;;;32.27;19.68;100427.16;5086511;28;20304;-60
2022/05/20 09:12:29;;;;;;;13.13;8.98;;;;;;;32.19;20.27;100414.53;5088110;28;20199;-59
2022/05/20 09:17:49;;;;;;;22.08;10.90;;;;;;;32.06;19.78;100401.50;5088690;28;20205;-60
2022/05/20 09:20:18;;;;;;;13.15;5.82;;;;;;;32.51;19.81;100411.09;5083325;28;20190;-59
2022/05/20 09:22:55;;;;;;;39.72;16.92;;;;;;;32.67;19.45;100396.88;5089218;28;20201;-60
2022/05/20 09:25:27;;;;;;;15.43;7.72;;;;;;;32.65;19.05;100405.09;5087259;28;20225;-60
2022/05/20 09:28:13;;;;;;;14.55;7.72;;;;;;;32.91;19.34;100396.09;5088495;28;20191;-60
2022/05/20 09:30:45;;;;;;;9.48;2.50;;;;;;;32.76;19.59;100396.75;5086620;28;20280;-59
2022/05/20 09:33:18;;;;;;;3.17;2.70;;;;;;;32.14;19.02;100394.50;5088454;28;20191;-60
2022/05/20 09:35:51;;;;;;;3.95;2.50;;;;;;;31.99;19.20;100372.78;5088538;28;20199;-61
2022/05/20 09:38:32;;;;;;;4.47;4.13;;;;;;;31.72;20.01;100390.75;5086455;28;20198;-59
2022/05/20 09:40:59;;;;;;;3.33;3.03;;;;;;;32.02;19.66;100380.50;5086467;28;20278;-60
2022/05/20 09:43:28;;;;;;;10.18;5.57;;;;;;;32.10;18.73;100378.69;5088385;28;20201;-60
2022/05/20 09:45:57;;;;;;;6.90;3.55;;;;;;;32.24;18.26;100371.91;5085577;28;20603;-61
2022/05/20 09:48:36;;;;;;;6.70;5.88;;;;;;;32.31;18.48;100370.25;5088917;28;20201;-60
2022/05/20 09:51:12;;;;;;;17.30;10.00;;;;;;;32.35;19.29;100371.59;5087078;28;20567;-61
2022/05/20 09:53:41;;;;;;;25.90;12.27;;;;;;;32.62;19.37;100361.59;5086625;28;20588;-60
2022/05/20 09:56:22;;;;;;;12.65;8.45;;;;;;;32.65;19.39;100363.94;5088173;28;20201;-60
2022/05/20 09:59:20;;;;;;;13.52;6.78;;;;;;;32.69;19.24;100362.59;5087761;28;20206;-60
2022/05/20 10:01:56;;;;;;;13.70;8.00;;;;;;;32.73;19.62;100361.31;5087728;28;20589;-60
2022/05/20 10:04:34;;;;;;;23.67;12.20;;;;;;;32.25;19.24;100349.41;5084194;28;20290;-59
2022/05/20 10:07:04;;;;;;;11.52;7.70;;;;;;;32.35;19.59;100354.63;5086539;28;20205;-60
2022/05/20 10:09:37;;;;;;;7.50;3.90;;;;;;;32.03;19.88;100341.91;5088305;28;20221;-58
2022/05/20 10:12:11;;;;;;;8.30;5.00;;;;;;;31.93;19.95;100338.53;5088434;28;20233;-59
2022/05/20 10:14:45;;;;;;;10.90;8.52;;;;;;;32.06;20.13;100344.25;5086044;28;20199;-60
2022/05/20 10:17:24;;;;;;;17.75;9.57;;;;;;;31.58;19.43;100337.66;5088276;28;20199;-59
2022/05/20 10:20:00;;;;;;;6.38;5.88;;;;;;;30.95;19.75;100343.19;5089543;28;20183;-60
2022/05/20 10:22:40;;;;;;;11.20;5.00;;;;;;;30.56;20.39;100333.78;5092452;28;20597;-60
2022/05/20 10:25:12;;;;;;;8.70;7.90;;;;;;;30.26;21.49;100330.44;5085153;28;20187;-59
2022/05/20 10:27:51;;;;;;;13.13;11.43;;;;;;;30.19;21.28;100329.34;5092418;28;20199;-60
2022/05/20 10:33:08;;;;;;;43.88;26.50;;;;;;;29.80;20.33;100323.31;5093208;28;20194;-61
2022/05/20 10:35:52;;;;;;;3.17;2.83;;;;;;;29.40;20.83;100326.28;5092165;28;20605;-59
2022/05/20 10:38:54;;;;;;;7.93;4.97;;;;;;;29.08;20.24;100331.97;5092049;28;20207;-59
2022/05/20 10:41:38;;;;;;;4.18;3.67;;;;;;;28.90;21.47;100318.44;5081459;28;20199;-60
2022/05/20 10:50:13;;;;;;;3.70;2.30;;;;;;;28.66;21.20;100295.81;5086651;28;20233;-60
2022/05/20 10:53:06;;;;;;;5.93;3.58;;;;;;;28.68;22.09;100305.34;5092700;28;20206;-58
2022/05/20 10:55:57;;;;;;;5.68;5.28;;;;;;;28.72;21.38;100309.44;5092859;28;20199;-59
2022/05/20 10:58:48;;;;;;;6.15;5.38;;;;;;;28.70;21.24;100302.53;5092906;28;20203;-60
2022/05/20 11:01:24;;;;;;;4.68;3.60;;;;;;;28.74;21.45;100298.63;5092534;28;20257;-60
2022/05/20 11:04:26;;;;;;;4.45;4.15;;;;;;;28.87;21.05;100297.38;5092757;28;20199;-60
2022/05/20 11:07:18;;;;;;;3.47;3.10;;;;;;;28.93;20.75;100292.44;5092743;28;20194;-59
2022/05/20 11:09:57;;;;;;;9.77;8.45;;;;;;;28.78;20.35;100287.50;5048135;28;20724;-60
2022/05/20 11:12:33;;;;;;;4.80;3.65;;;;;;;28.74;21.22;100285.25;5092538;28;20199;-60
2022/05/20 11:15:35;;;;;;;2.50;2.28;;;;;;;28.47;21.48;100280.59;5092409;28;20655;-59
2022/05/20 11:18:45;;;;;;;14.60;7.68;;;;;;;28.63;21.51;100274.72;5081798;28;20203;-60
2022/05/20 11:21:50;;;;;;;8.18;5.07;;;;;;;28.63;22.00;100272.88;5076055;28;20195;-60
2022/05/20 11:24:38;;;;;;;4.32;2.72;;;;;;;28.53;21.52;100251.53;5092152;28;20230;-61
2022/05/20 11:27:22;;;;;;;4.63;2.95;;;;;;;28.62;20.58;100273.03;5092169;28;20716;-61
2022/05/20 11:30:06;;;;;;;7.78;3.88;;;;;;;28.73;20.16;100263.03;5092036;28;20218;-59
2022/05/20 11:32:55;;;;;;;27.70;8.73;;;;;;;28.78;20.37;100263.47;5091407;28;20201;-61
2022/05/20 11:35:41;;;;;;;2.85;2.33;;;;;;;28.60;20.04;100241.09;5092119;28;20199;-60
2022/05/20 11:38:50;;;;;;;6.38;4.10;;;;;;;28.64;20.47;100258.56;5091866;28;20213;-61
2022/05/20 11:41:30;;;;;;;18.92;6.93;;;;;;;28.71;20.53;100246.31;5084433;28;20205;-60
2022/05/20 11:44:16;;;;;;;6.30;4.47;;;;;;;28.47;20.44;100249.41;5085186;28;20219;-60
2022/05/20 11:47:03;;;;;;;5.32;4.32;;;;;;;28.47;20.66;100246.72;5075006;28;20246;-61
2022/05/20 11:49:43;;;;;;;14.15;8.32;;;;;;;28.48;21.09;100237.75;5091178;28;20237;-60
2022/05/20 11:52:35;;;;;;;13.95;9.43;;;;;;;28.63;20.93;100235.50;5090912;28;20227;-60
2022/05/20 11:55:09;;;;;;;3.63;3.22;;;;;;;28.72;21.51;100239.97;5090365;28;20706;-61
2022/05/20 11:57:39;;;;;;;7.03;5.28;;;;;;;28.65;21.10;100222.00;5091812;28;20695;-61
2022/05/20 12:00:10;;;;;;;8.80;6.35;;;;;;;28.75;21.05;100231.69;5091668;28;20203;-60
2022/05/20 12:02:41;;;;;;;6.93;4.53;;;;;;;28.65;21.19;100227.34;5089857;28;20203;-61
2022/05/20 12:05:12;;;;;;;8.20;5.20;;;;;;;28.67;20.83;100223.50;5091315;28;20199;-61
2022/05/20 12:07:40;;;;;;;14.50;9.43;;;;;;;28.63;21.13;100216.78;5090724;28;20439;-61
2022/05/20 12:10:43;;;;;;;5.50;1.90;;;;;;;28.53;20.37;100207.94;5091202;28;20219;-61
2022/05/20 12:13:14;;;;;;;10.05;5.20;;;;;;;28.35;21.10;100206.94;5091526;28;20195;-58
2022/05/20 12:15:48;;;;;;;3.17;2.88;;;;;;;28.31;21.17;100205.56;5091133;28;20659;-57
2022/05/20 12:24:19;;;;;;;5.00;3.08;;;;;;;28.44;21.32;100193.59;5090964;28;20198;-57
2022/05/20 12:26:51;;;;;;;15.73;3.03;;;;;;;28.30;21.29;100193.19;5091047;28;20286;-61